createdAt,value
2022-08-03T00:00:43.011Z,956.09
2022-08-03T00:01:43.003Z,956.07
2022-08-03T00:02:43.058Z,956.06
2022-08-03T00:03:42.989Z,956.08
2022-08-03T00:04:42.983Z,956.06
2022-08-03T00:06:03.461Z,956.11
2022-08-03T00:06:42.970Z,956.06
2022-08-03T00:07:42.962Z,956.07
2022-08-03T00:08:42.956Z,956.06
2022-08-03T00:09:42.949Z,956.05
2022-08-03T00:10:42.945Z,956.05
2022-08-03T00:11:42.936Z,956.04
2022-08-03T00:12:42.932Z,956.06
2022-08-03T00:13:42.923Z,956.04
2022-08-03T00:14:42.917Z,956.07
2022-08-03T00:15:42.911Z,956.07
2022-08-03T00:16:42.905Z,956.02
2022-08-03T00:17:53.151Z,956
2022-08-03T00:18:42.890Z,956.06
2022-08-03T00:19:42.883Z,956.03
2022-08-03T00:20:42.879Z,956.08
2022-08-03T00:21:42.871Z,956.07
2022-08-03T00:22:42.864Z,956.04
2022-08-03T00:23:51.989Z,956.04
2022-08-03T00:24:42.853Z,956.08
2022-08-03T00:25:42.844Z,956.02
2022-08-03T00:26:42.839Z,956.1
2022-08-03T00:27:43.402Z,956.07
2022-08-03T00:28:43.396Z,956.09
2022-08-03T00:29:57.540Z,956.03
2022-08-03T00:30:43.385Z,956.06
2022-08-03T00:31:52.959Z,956.06
2022-08-03T00:32:44.373Z,956.08
2022-08-03T00:33:58.459Z,956.08
2022-08-03T00:34:57.425Z,956.06
2022-08-03T00:35:53.027Z,956.07
2022-08-03T00:36:53.020Z,956.08
2022-08-03T00:37:53.013Z,956.06
2022-08-03T00:38:53.008Z,956.1
2022-08-03T00:39:52.999Z,956.1
2022-08-03T00:40:52.994Z,956.09
2022-08-03T00:41:52.986Z,956.09
2022-08-03T00:42:52.984Z,956.12
2022-08-03T00:43:52.972Z,956.1
2022-08-03T00:44:52.968Z,956.14
2022-08-03T00:45:52.961Z,956.1
2022-08-03T00:46:52.953Z,956.14
2022-08-03T00:47:52.946Z,956.09
2022-08-03T00:48:53.051Z,956.12
2022-08-03T00:49:52.933Z,956.11
2022-08-03T00:50:52.926Z,956.1
2022-08-03T00:51:52.918Z,956.14
2022-08-03T00:52:52.913Z,956.16
2022-08-03T00:53:52.907Z,956.15
2022-08-03T00:54:52.900Z,956.17
2022-08-03T00:55:52.893Z,956.17
2022-08-03T00:56:59.354Z,956.16
2022-08-03T00:57:52.879Z,956.16
2022-08-03T00:58:52.872Z,956.18
2022-08-03T00:59:52.865Z,956.21
2022-08-03T01:00:52.907Z,956.16
2022-08-03T01:01:52.851Z,956.15
2022-08-03T01:02:52.843Z,956.17
2022-08-03T01:03:52.837Z,956.17
2022-08-03T01:04:52.829Z,956.17
2022-08-03T01:05:52.824Z,956.16
2022-08-03T01:06:52.815Z,956.17
2022-08-03T01:07:52.809Z,956.14
2022-08-03T01:08:52.801Z,956.18
2022-08-03T01:09:52.796Z,956.19
2022-08-03T01:10:52.787Z,956.15
2022-08-03T01:12:00.400Z,956.16
2022-08-03T01:12:52.772Z,956.21
2022-08-03T01:13:59.328Z,956.18
2022-08-03T01:14:52.762Z,956.17
2022-08-03T01:15:52.754Z,956.2
2022-08-03T01:16:52.745Z,956.16
2022-08-03T01:17:52.740Z,956.16
2022-08-03T01:18:52.731Z,956.2
2022-08-03T01:19:52.726Z,956.17
2022-08-03T01:20:52.718Z,956.17
2022-08-03T01:21:52.712Z,956.19
2022-08-03T01:22:52.704Z,956.16
2022-08-03T01:23:52.698Z,956.2
2022-08-03T01:24:52.689Z,956.17
2022-08-03T01:25:54.396Z,956.15
2022-08-03T01:26:52.674Z,956.15
2022-08-03T01:27:52.668Z,956.17
2022-08-03T01:28:52.661Z,956.14
2022-08-03T01:29:52.656Z,956.15
2022-08-03T01:30:52.896Z,956.14
2022-08-03T01:32:52.331Z,956.12
2022-08-03T01:33:11.829Z,956.09
2022-08-03T01:34:14.701Z,956.11
2022-08-03T01:35:11.804Z,956.13
2022-08-03T01:36:11.798Z,956.11
2022-08-03T01:37:11.789Z,956.11
2022-08-03T01:38:11.783Z,956.08
2022-08-03T01:39:11.803Z,956.1
2022-08-03T01:40:11.768Z,956.1
2022-08-03T01:41:11.759Z,956.1
2022-08-03T01:42:11.759Z,956.12
2022-08-03T01:43:11.751Z,956.11
2022-08-03T01:44:34.872Z,956.08
2022-08-03T01:45:34.863Z,956.07
2022-08-03T01:46:34.859Z,956.07
2022-08-03T01:47:34.850Z,956.11
2022-08-03T01:48:34.843Z,956.12
2022-08-03T01:49:34.905Z,956.12
2022-08-03T01:50:34.825Z,956.08
2022-08-03T01:51:56.201Z,956.07
2022-08-03T01:52:34.813Z,956.06
2022-08-03T01:53:34.805Z,956.07
2022-08-03T01:54:34.798Z,956.07
2022-08-03T01:55:34.790Z,956.05
2022-08-03T01:56:34.782Z,956.01
2022-08-03T01:57:34.776Z,956.05
2022-08-03T01:58:34.766Z,956.06
2022-08-03T01:59:34.761Z,956.09
2022-08-03T02:00:34.752Z,956.09
2022-08-03T02:02:15.758Z,956.04
2022-08-03T02:02:45.417Z,956.06
2022-08-03T02:03:59.653Z,956.06
2022-08-03T02:04:45.327Z,956.08
2022-08-03T02:05:45.321Z,956.04
2022-08-03T02:07:05.131Z,956.06
2022-08-03T02:08:05.125Z,956.07
2022-08-03T02:09:05.115Z,956.07
2022-08-03T02:10:05.110Z,956.1
2022-08-03T02:11:05.100Z,956.06
2022-08-03T02:12:05.094Z,956.05
2022-08-03T02:13:05.102Z,956.04
2022-08-03T02:14:05.078Z,956.05
2022-08-03T02:15:05.070Z,956.03
2022-08-03T02:16:05.064Z,956.02
2022-08-03T02:17:05.054Z,956.06
2022-08-03T02:18:05.053Z,956.04
2022-08-03T02:19:05.040Z,956.02
2022-08-03T02:20:05.034Z,956.07
2022-08-03T02:21:05.330Z,956.02
2022-08-03T02:22:08.229Z,956.04
2022-08-03T02:23:08.221Z,956.05
2022-08-03T02:24:08.215Z,956.05
2022-08-03T02:25:08.206Z,956.04
2022-08-03T02:26:08.201Z,956.04
2022-08-03T02:27:08.192Z,956
2022-08-03T02:28:08.186Z,956.01
2022-08-03T02:29:08.176Z,956.05
2022-08-03T02:30:08.171Z,956.05
2022-08-03T02:31:08.162Z,956.02
2022-08-03T02:32:08.155Z,956.03
2022-08-03T02:33:08.146Z,956.01
2022-08-03T02:34:08.139Z,956.05
2022-08-03T02:35:08.132Z,956
2022-08-03T02:36:08.125Z,956
2022-08-03T02:37:08.115Z,955.97
2022-08-03T02:38:08.110Z,956.01
2022-08-03T02:39:08.103Z,955.97
2022-08-03T02:40:08.092Z,955.97
2022-08-03T02:41:08.086Z,956
2022-08-03T02:42:08.077Z,955.94
2022-08-03T02:43:08.071Z,956
2022-08-03T02:44:08.061Z,955.97
2022-08-03T02:45:08.058Z,955.96
2022-08-03T02:46:08.047Z,955.97
2022-08-03T02:47:08.039Z,955.99
2022-08-03T02:48:08.030Z,955.96
2022-08-03T02:49:35.151Z,955.94
2022-08-03T02:50:08.049Z,955.93
2022-08-03T02:51:08.010Z,955.92
2022-08-03T02:52:08.004Z,955.91
2022-08-03T02:53:07.994Z,955.89
2022-08-03T02:54:07.986Z,955.93
2022-08-03T02:55:07.978Z,955.92
2022-08-03T02:56:07.971Z,955.91
2022-08-03T02:57:07.963Z,955.87
2022-08-03T02:58:07.955Z,955.87
2022-08-03T02:59:07.948Z,955.87
2022-08-03T03:00:07.940Z,955.84
2022-08-03T03:01:07.979Z,955.84
2022-08-03T03:02:07.925Z,955.86
2022-08-03T03:03:07.917Z,955.85
2022-08-03T03:04:07.908Z,955.86
2022-08-03T03:05:53.839Z,955.86
2022-08-03T03:06:11.407Z,955.84
2022-08-03T03:07:12.100Z,955.83
2022-08-03T03:08:17.566Z,955.84
2022-08-03T03:09:12.944Z,955.83
2022-08-03T03:10:12.933Z,955.83
2022-08-03T03:11:12.927Z,955.84
2022-08-03T03:12:13.117Z,955.86
2022-08-03T03:13:12.912Z,955.86
2022-08-03T03:14:12.904Z,955.83
2022-08-03T03:15:12.897Z,955.81
2022-08-03T03:16:12.890Z,955.8
2022-08-03T03:17:12.882Z,955.8
2022-08-03T03:18:12.873Z,955.83
2022-08-03T03:19:12.867Z,955.87
2022-08-03T03:20:12.865Z,955.87
2022-08-03T03:21:12.851Z,955.86
2022-08-03T03:22:12.911Z,955.85
2022-08-03T03:23:12.836Z,955.84
2022-08-03T03:24:13.503Z,955.85
2022-08-03T03:25:13.496Z,955.87
2022-08-03T03:26:13.487Z,955.85
2022-08-03T03:27:16.447Z,955.85
2022-08-03T03:28:13.474Z,955.81
2022-08-03T03:29:13.464Z,955.84
2022-08-03T03:30:13.456Z,955.81
2022-08-03T03:31:13.448Z,955.88
2022-08-03T03:32:13.702Z,955.87
2022-08-03T03:49:50.192Z,955.83
2022-08-03T03:50:50.180Z,955.78
2022-08-03T03:51:50.166Z,955.81
2022-08-03T03:52:50.151Z,955.79
2022-08-03T03:53:50.143Z,955.79
2022-08-03T03:54:50.202Z,955.82
2022-08-03T03:55:59.073Z,955.83
2022-08-03T03:56:50.111Z,955.8
2022-08-03T03:57:50.102Z,955.81
2022-08-03T03:58:50.092Z,955.86
2022-08-03T03:59:50.084Z,955.87
2022-08-03T04:00:50.140Z,955.86
2022-08-03T04:01:59.074Z,955.87
2022-08-03T04:02:50.055Z,955.9
2022-08-03T04:03:50.051Z,955.9
2022-08-03T04:04:50.038Z,955.9
2022-08-03T04:05:50.030Z,955.86
2022-08-03T04:06:50.023Z,955.83
2022-08-03T04:07:50.013Z,955.85
2022-08-03T04:08:50.003Z,955.83
2022-08-03T04:09:49.997Z,955.82
2022-08-03T04:10:49.985Z,955.83
2022-08-03T04:11:49.980Z,955.85
2022-08-03T04:12:50.388Z,955.87
2022-08-03T04:13:49.964Z,955.86
2022-08-03T04:14:49.953Z,955.83
2022-08-03T04:15:49.946Z,955.8
2022-08-03T04:16:49.936Z,955.81
2022-08-03T04:17:49.928Z,955.82
2022-08-03T04:18:49.919Z,955.79
2022-08-03T04:19:49.914Z,955.86
2022-08-03T04:20:49.902Z,955.84
2022-08-03T04:21:49.896Z,955.88
2022-08-03T04:22:49.886Z,955.94
2022-08-03T04:23:49.880Z,955.91
2022-08-03T04:24:49.872Z,955.93
2022-08-03T04:25:49.864Z,955.92
2022-08-03T04:26:52.709Z,955.93
2022-08-03T04:28:07.609Z,955.92
2022-08-03T04:28:49.840Z,955.93
2022-08-03T04:29:49.832Z,955.96
2022-08-03T04:30:49.824Z,955.94
2022-08-03T04:31:49.817Z,955.94
2022-08-03T04:32:49.807Z,955.96
2022-08-03T04:33:49.802Z,955.96
2022-08-03T04:34:49.792Z,955.96
2022-08-03T04:35:58.733Z,955.96
2022-08-03T04:36:49.777Z,955.97
2022-08-03T04:37:49.771Z,955.94
2022-08-03T04:38:49.763Z,955.94
2022-08-03T04:39:49.756Z,955.96
2022-08-03T04:40:49.748Z,955.94
2022-08-03T04:42:02.406Z,955.97
2022-08-03T04:42:49.731Z,955.99
2022-08-03T04:43:49.723Z,955.95
2022-08-03T04:44:49.717Z,956
2022-08-03T04:45:49.708Z,955.97
2022-08-03T04:46:50.499Z,955.98
2022-08-03T04:47:49.692Z,956.05
2022-08-03T04:48:49.687Z,955.97
2022-08-03T04:49:49.678Z,956.03
2022-08-03T04:50:49.673Z,956.01
2022-08-03T04:51:49.663Z,956.06
2022-08-03T04:52:49.657Z,956.02
2022-08-03T04:53:49.682Z,956.05
2022-08-03T04:54:50.181Z,956.07
2022-08-03T04:55:49.633Z,956.1
2022-08-03T04:56:49.627Z,956.09
2022-08-03T04:57:49.621Z,956.12
2022-08-03T04:58:49.613Z,956.18
2022-08-03T04:59:49.604Z,956.13
2022-08-03T05:00:49.597Z,956.18
2022-08-03T05:01:49.658Z,956.14
2022-08-03T05:02:49.583Z,956.2
2022-08-03T05:03:49.573Z,956.17
2022-08-03T05:04:49.569Z,956.16
2022-08-03T05:05:50.732Z,956.18
2022-08-03T05:06:50.999Z,956.14
2022-08-03T05:07:49.545Z,956.17
2022-08-03T05:08:50.835Z,956.17
2022-08-03T05:09:50.359Z,956.17
2022-08-03T05:10:49.526Z,956.19
2022-08-03T05:11:49.518Z,956.2
2022-08-03T05:12:49.511Z,956.18
2022-08-03T05:13:49.502Z,956.18
2022-08-03T05:14:49.497Z,956.18
2022-08-03T05:15:49.490Z,956.17
2022-08-03T05:16:49.482Z,956.19
2022-08-03T05:17:49.474Z,956.17
2022-08-03T05:18:49.470Z,956.21
2022-08-03T05:19:49.461Z,956.14
2022-08-03T05:20:49.454Z,956.12
2022-08-03T05:21:52.305Z,956.13
2022-08-03T05:22:49.442Z,956.12
2022-08-03T05:23:49.432Z,956.13
2022-08-03T05:24:49.428Z,956.12
2022-08-03T05:25:49.929Z,956.08
2022-08-03T05:26:49.416Z,956.09
2022-08-03T05:27:49.406Z,956.12
2022-08-03T05:28:51.163Z,956.14
2022-08-03T05:29:49.394Z,956.16
2022-08-03T05:30:49.389Z,956.13
2022-08-03T05:31:49.380Z,956.16
2022-08-03T05:32:49.374Z,956.13
2022-08-03T05:33:49.391Z,956.15
2022-08-03T05:34:49.358Z,956.16
2022-08-03T05:35:55.619Z,956.15
2022-08-03T05:36:49.345Z,956.14
2022-08-03T05:37:53.004Z,956.15
2022-08-03T05:38:49.332Z,956.15
2022-08-03T05:39:49.334Z,956.19
2022-08-03T05:40:57.083Z,956.15
2022-08-03T05:41:49.314Z,956.13
2022-08-03T05:42:49.306Z,956.14
2022-08-03T05:43:49.302Z,956.15
2022-08-03T05:44:49.293Z,956.14
2022-08-03T05:45:49.286Z,956.13
2022-08-03T05:46:49.278Z,956.15
2022-08-03T05:47:49.276Z,956.11
2022-08-03T05:48:49.268Z,956.11
2022-08-03T05:49:49.261Z,956.14
2022-08-03T05:50:49.254Z,956.14
2022-08-03T05:51:49.250Z,956.13
2022-08-03T05:52:49.245Z,956.11
2022-08-03T05:53:49.237Z,956.14
2022-08-03T05:54:55.770Z,956.13
2022-08-03T05:55:52.642Z,956.14
2022-08-03T05:56:49.219Z,956.18
2022-08-03T05:57:49.328Z,956.16
2022-08-03T05:58:49.206Z,956.16
2022-08-03T05:59:53.772Z,956.18
2022-08-03T06:00:49.192Z,956.16
2022-08-03T06:01:49.232Z,956.17
2022-08-03T06:02:49.181Z,956.16
2022-08-03T06:03:49.178Z,956.2
2022-08-03T06:04:49.168Z,956.15
2022-08-03T06:05:53.472Z,956.18
2022-08-03T06:06:49.157Z,956.18
2022-08-03T06:07:49.153Z,956.22
2022-08-03T06:08:49.145Z,956.19
2022-08-03T06:10:34.645Z,956.22
2022-08-03T06:10:49.135Z,956.18
2022-08-03T06:11:49.128Z,956.16
2022-08-03T06:12:49.124Z,956.21
2022-08-03T06:13:49.120Z,956.22
2022-08-03T06:14:49.112Z,956.19
2022-08-03T06:15:49.109Z,956.17
2022-08-03T06:16:49.101Z,956.19
2022-08-03T06:17:49.098Z,956.22
2022-08-03T06:18:49.089Z,956.2
2022-08-03T06:19:49.085Z,956.21
2022-08-03T06:20:49.328Z,956.23
2022-08-03T06:21:49.076Z,956.27
2022-08-03T06:22:50.639Z,956.23
2022-08-03T06:23:53.589Z,956.26
2022-08-03T06:24:53.631Z,956.27
2022-08-03T06:25:49.053Z,956.2
2022-08-03T06:26:49.049Z,956.21
2022-08-03T06:27:49.043Z,956.23
2022-08-03T06:28:52.011Z,956.23
2022-08-03T06:29:49.033Z,956.23
2022-08-03T06:30:49.028Z,956.25
2022-08-03T06:31:49.025Z,956.26
2022-08-03T06:32:51.596Z,956.24
2022-08-03T06:34:31.887Z,956.26
2022-08-03T06:34:49.008Z,956.24
2022-08-03T06:35:49.003Z,956.26
2022-08-03T06:36:48.999Z,956.24
2022-08-03T06:37:48.991Z,956.25
2022-08-03T06:38:48.990Z,956.24
2022-08-03T06:39:49.134Z,956.24
2022-08-03T06:40:48.980Z,956.24
2022-08-03T06:41:48.974Z,956.23
2022-08-03T06:42:48.970Z,956.22
2022-08-03T06:44:02.821Z,956.22
2022-08-03T06:44:48.960Z,956.23
2022-08-03T06:45:48.954Z,956.24
2022-08-03T06:46:48.954Z,956.25
2022-08-03T06:47:48.947Z,956.26
2022-08-03T06:48:48.942Z,956.25
2022-08-03T06:50:13.139Z,956.24
2022-08-03T06:50:48.933Z,956.23
2022-08-03T06:52:02.813Z,956.26
2022-08-03T06:52:48.927Z,956.28
2022-08-03T06:53:48.919Z,956.31
2022-08-03T06:54:48.918Z,956.35
2022-08-03T06:55:52.498Z,956.32
2022-08-03T06:56:48.911Z,956.34
2022-08-03T06:57:48.905Z,956.3
2022-08-03T06:58:48.907Z,956.29
2022-08-03T07:00:06.683Z,956.31
2022-08-03T07:00:48.903Z,956.29
2022-08-03T07:01:48.972Z,956.29
2022-08-03T07:02:48.898Z,956.33
2022-08-03T07:03:52.432Z,956.32
2022-08-03T07:04:48.895Z,956.35
2022-08-03T07:05:48.893Z,956.34
2022-08-03T07:06:48.894Z,956.36
2022-08-03T07:07:48.893Z,956.37
2022-08-03T07:08:51.876Z,956.36
2022-08-03T07:09:55.047Z,956.39
2022-08-03T07:10:48.900Z,956.39
2022-08-03T07:11:48.898Z,956.34
2022-08-03T07:12:52.939Z,956.39
2022-08-03T07:13:48.903Z,956.41
2022-08-03T07:14:48.906Z,956.35
2022-08-03T07:15:54.705Z,956.4
2022-08-03T07:16:48.912Z,956.42
2022-08-03T07:17:48.918Z,956.4
2022-08-03T07:18:48.919Z,956.42
2022-08-03T07:19:48.926Z,956.4
2022-08-03T07:20:48.927Z,956.43
2022-08-03T07:21:48.934Z,956.46
2022-08-03T07:22:48.937Z,956.47
2022-08-03T07:23:48.944Z,956.46
2022-08-03T07:24:48.958Z,956.4
2022-08-03T07:25:48.954Z,956.46
2022-08-03T07:26:48.962Z,956.45
2022-08-03T07:27:51.764Z,956.41
2022-08-03T07:28:48.971Z,956.37
2022-08-03T07:29:48.979Z,956.35
2022-08-03T07:30:48.984Z,956.35
2022-08-03T07:31:48.992Z,956.37
2022-08-03T07:32:50.212Z,956.36
2022-08-03T07:33:49.009Z,956.38
2022-08-03T07:34:49.014Z,956.43
2022-08-03T07:35:49.022Z,956.43
2022-08-03T07:36:49.028Z,956.46
2022-08-03T07:37:54.093Z,956.45
2022-08-03T07:38:49.046Z,956.53
2022-08-03T07:39:49.055Z,956.59
2022-08-03T07:40:49.062Z,956.61
2022-08-03T07:41:49.072Z,956.61
2022-08-03T07:42:52.239Z,956.56
2022-08-03T07:43:49.092Z,956.55
2022-08-03T07:44:49.097Z,956.53
2022-08-03T07:45:49.106Z,956.49
2022-08-03T07:46:49.114Z,956.51
2022-08-03T07:47:53.350Z,956.52
2022-08-03T07:48:49.135Z,956.56
2022-08-03T07:49:49.143Z,956.63
2022-08-03T07:50:49.151Z,956.51
2022-08-03T07:51:49.161Z,956.2
2022-08-03T07:52:49.173Z,956.21
2022-08-03T07:53:49.177Z,956.17
2022-08-03T07:54:49.190Z,956.18
2022-08-03T07:55:49.198Z,956.16
2022-08-03T07:56:49.203Z,956.13
2022-08-03T07:57:49.212Z,956.22
2022-08-03T07:58:49.220Z,956.19
2022-08-03T07:59:57.004Z,956.18
2022-08-03T08:00:49.275Z,956.18
2022-08-03T08:01:49.264Z,956.15
2022-08-03T08:02:49.254Z,956.15
2022-08-03T08:03:52.513Z,956.16
2022-08-03T08:04:49.267Z,956.16
2022-08-03T08:05:49.277Z,956.18
2022-08-03T08:06:49.286Z,956.19
2022-08-03T08:07:50.960Z,956.16
2022-08-03T08:08:49.302Z,956.18
2022-08-03T08:09:49.305Z,956.2
2022-08-03T08:10:58.080Z,956.18
2022-08-03T08:11:49.444Z,956.18
2022-08-03T08:12:49.452Z,956.17
2022-08-03T08:13:49.465Z,956.15
2022-08-03T08:14:49.466Z,956.2
2022-08-03T08:15:49.471Z,956.18
2022-08-03T08:16:49.479Z,956.2
2022-08-03T08:17:49.485Z,956.21
2022-08-03T08:18:49.495Z,956.2
2022-08-03T08:19:51.807Z,956.18
2022-08-03T08:20:49.504Z,956.18
2022-08-03T08:21:53.354Z,956.18
2022-08-03T08:22:49.515Z,956.2
2022-08-03T08:23:54.993Z,956.2
2022-08-03T08:24:49.524Z,956.19
2022-08-03T08:25:49.527Z,956.2
2022-08-03T08:26:49.534Z,956.18
2022-08-03T08:28:22.117Z,956.19
2022-08-03T08:28:49.547Z,956.14
2022-08-03T08:29:54.299Z,956.15
2022-08-03T08:30:49.576Z,956.1
2022-08-03T08:31:49.560Z,956.12
2022-08-03T08:32:49.565Z,956.15
2022-08-03T08:34:05.058Z,956.14
2022-08-03T08:34:49.574Z,956.13
2022-08-03T08:35:49.575Z,956.14
2022-08-03T08:36:49.581Z,956.1
2022-08-03T08:37:50.850Z,956.15
2022-08-03T08:38:49.591Z,956.14
2022-08-03T08:39:49.592Z,956.15
2022-08-03T08:40:49.601Z,956.15
2022-08-03T08:41:53.007Z,956.16
2022-08-03T08:42:58.265Z,956.16
2022-08-03T08:43:49.609Z,956.16
2022-08-03T08:44:49.615Z,956.15
2022-08-03T08:45:49.616Z,956.17
2022-08-03T08:46:49.623Z,956.19
2022-08-03T08:47:50.778Z,956.17
2022-08-03T08:48:49.629Z,956.14
2022-08-03T08:50:08.764Z,956.15
2022-08-03T08:50:49.636Z,956.12
2022-08-03T08:51:52.718Z,956.13
2022-08-03T08:52:49.643Z,956.16
2022-08-03T08:53:49.646Z,956.12
2022-08-03T08:54:49.915Z,956.11
2022-08-03T08:55:57.003Z,956.14
2022-08-03T08:56:49.656Z,956.11
2022-08-03T08:57:49.662Z,956.08
2022-08-03T08:58:49.665Z,956.11
2022-08-03T08:59:51.576Z,956.1
2022-08-03T09:00:49.701Z,956.1
2022-08-03T09:01:49.677Z,956.08
2022-08-03T09:02:49.680Z,956.14
2022-08-03T09:03:49.687Z,956.13
2022-08-03T09:04:49.684Z,956.12
2022-08-03T09:05:57.032Z,956.13
2022-08-03T09:07:04.650Z,956.1
2022-08-03T09:07:49.696Z,956.11
2022-08-03T09:08:49.699Z,956.12
2022-08-03T09:10:08.267Z,956.16
2022-08-03T09:10:49.704Z,956.15
2022-08-03T09:11:52.586Z,956.16
2022-08-03T09:12:49.714Z,956.16
2022-08-03T09:13:49.718Z,956.13
2022-08-03T09:15:01.019Z,956.16
2022-08-03T09:15:57.207Z,956.13
2022-08-03T09:16:49.726Z,956.12
2022-08-03T09:17:51.189Z,956.14
2022-08-03T09:18:49.735Z,956.13
2022-08-03T09:20:02.800Z,956.08
2022-08-03T09:20:49.739Z,956.08
2022-08-03T09:21:49.742Z,956.07
2022-08-03T09:22:49.744Z,956.04
2022-08-03T09:24:01.864Z,956.07
2022-08-03T09:25:08.886Z,956.05
2022-08-03T09:25:51.971Z,956.08
2022-08-03T09:26:53.639Z,956.05
2022-08-03T09:27:51.977Z,956.01
2022-08-03T09:28:52.920Z,956.02
2022-08-03T09:29:51.983Z,956
2022-08-03T09:30:51.990Z,956
2022-08-03T09:31:51.992Z,955.98
2022-08-03T09:32:51.992Z,956.03
2022-08-03T09:33:51.996Z,955.95
2022-08-03T09:34:55.301Z,956
2022-08-03T09:35:53.871Z,955.99
2022-08-03T09:36:52.010Z,955.96
2022-08-03T09:38:12.394Z,955.97
2022-08-03T09:38:52.010Z,955.98
2022-08-03T09:39:52.017Z,955.95
2022-08-03T09:40:54.798Z,955.99
2022-08-03T09:41:52.021Z,956
2022-08-03T09:42:52.023Z,955.96
2022-08-03T09:43:52.027Z,955.99
2022-08-03T09:44:52.054Z,956
2022-08-03T09:45:52.035Z,956.01
2022-08-03T09:46:52.035Z,955.98
2022-08-03T09:47:52.041Z,956
2022-08-03T09:48:52.045Z,955.97
2022-08-03T09:49:52.045Z,955.99
2022-08-03T09:50:56.913Z,955.98
2022-08-03T09:52:55.275Z,955.92
2022-08-03T09:53:57.120Z,955.94
2022-08-03T09:54:55.281Z,955.93
2022-08-03T09:56:31.034Z,955.93
2022-08-03T09:57:03.053Z,955.91
2022-08-03T09:58:03.050Z,955.9
2022-08-03T09:59:03.054Z,955.92
2022-08-03T10:00:07.800Z,955.91
2022-08-03T10:01:03.144Z,955.93
2022-08-03T10:02:03.066Z,955.89
2022-08-03T10:03:03.069Z,955.9
2022-08-03T10:04:05.048Z,955.9
2022-08-03T10:05:03.077Z,955.89
2022-08-03T10:06:03.077Z,955.82
2022-08-03T10:07:03.079Z,955.85
2022-08-03T10:08:03.085Z,955.87
2022-08-03T10:09:03.084Z,955.84
2022-08-03T10:10:29.163Z,955.84
2022-08-03T10:11:03.092Z,955.81
2022-08-03T10:12:03.096Z,955.81
2022-08-03T10:13:03.097Z,955.81
2022-08-03T10:14:03.103Z,955.79
2022-08-03T10:15:03.108Z,955.87
2022-08-03T10:16:29.413Z,955.83
2022-08-03T10:17:29.417Z,955.79
2022-08-03T10:18:29.420Z,955.78
2022-08-03T10:19:29.423Z,955.75
2022-08-03T10:20:29.427Z,955.74
2022-08-03T10:21:29.431Z,955.74
2022-08-03T10:22:29.435Z,955.73
2022-08-03T10:23:33.217Z,955.73
2022-08-03T10:24:29.442Z,955.69
2022-08-03T10:25:33.126Z,955.71
2022-08-03T10:26:29.448Z,955.68
2022-08-03T10:27:29.452Z,955.67
2022-08-03T10:28:29.455Z,955.66
2022-08-03T10:29:29.456Z,955.67
2022-08-03T10:30:29.463Z,955.68
2022-08-03T10:31:29.482Z,955.67
2022-08-03T10:32:29.472Z,955.68
2022-08-03T10:33:50.584Z,955.69
2022-08-03T10:34:29.476Z,955.69
2022-08-03T10:35:29.480Z,955.67
2022-08-03T10:36:29.485Z,955.66
2022-08-03T10:37:29.485Z,955.66
2022-08-03T10:38:29.491Z,955.65
2022-08-03T10:39:29.509Z,955.69
2022-08-03T10:41:29.502Z,955.68
2022-08-03T10:42:29.504Z,955.71
2022-08-03T10:43:29.509Z,955.72
2022-08-03T10:44:29.510Z,955.72
2022-08-03T10:45:29.516Z,955.67
2022-08-03T10:46:29.519Z,955.66
2022-08-03T10:47:29.684Z,955.67
2022-08-03T10:48:29.683Z,955.6
2022-08-03T10:49:34.098Z,955.6
2022-08-03T10:50:29.689Z,955.55
2022-08-03T10:51:29.695Z,955.61
2022-08-03T10:52:31.432Z,955.62
2022-08-03T10:53:29.702Z,955.58
2022-08-03T10:54:29.705Z,955.59
2022-08-03T10:55:29.711Z,955.58
2022-08-03T10:56:42.805Z,955.62
2022-08-03T10:57:29.717Z,955.57
2022-08-03T10:58:30.702Z,955.63
2022-08-03T10:59:29.724Z,955.6
2022-08-03T11:00:29.752Z,955.61
2022-08-03T11:01:54.206Z,955.54
2022-08-03T11:02:29.736Z,955.52
2022-08-03T11:03:29.739Z,955.53
2022-08-03T11:04:30.427Z,955.52
2022-08-03T11:05:29.747Z,955.55
2022-08-03T11:06:31.713Z,955.51
2022-08-03T11:07:29.755Z,955.51
2022-08-03T11:08:29.757Z,955.53
2022-08-03T11:09:29.765Z,955.56
2022-08-03T11:10:29.764Z,955.52
2022-08-03T11:11:29.771Z,955.53
2022-08-03T11:12:30.142Z,955.49
2022-08-03T11:13:29.779Z,955.51
2022-08-03T11:14:29.780Z,955.48
2022-08-03T11:15:29.802Z,955.49
2022-08-03T11:16:29.789Z,955.47
2022-08-03T11:17:29.794Z,955.47
2022-08-03T11:18:29.795Z,955.46
2022-08-03T11:19:29.802Z,955.41
2022-08-03T11:20:29.804Z,955.43
2022-08-03T11:21:30.473Z,955.43
2022-08-03T11:22:29.811Z,955.46
2022-08-03T11:24:02.211Z,955.44
2022-08-03T11:24:29.821Z,955.41
2022-08-03T11:25:34.843Z,955.36
2022-08-03T11:26:29.828Z,955.39
2022-08-03T11:27:29.833Z,955.42
2022-08-03T11:28:30.609Z,955.4
2022-08-03T11:29:29.977Z,955.43
2022-08-03T11:30:29.844Z,955.41
2022-08-03T11:32:29.856Z,955.45
2022-08-03T11:33:29.856Z,955.46
2022-08-03T11:34:29.862Z,955.46
2022-08-03T11:35:29.865Z,955.45
2022-08-03T11:36:31.942Z,955.45
2022-08-03T11:37:33.209Z,955.47
2022-08-03T11:38:29.882Z,955.42
2022-08-03T11:39:29.883Z,955.45
2022-08-03T11:40:29.888Z,955.53
2022-08-03T11:41:29.890Z,955.5
2022-08-03T11:42:29.895Z,955.47
2022-08-03T11:43:31.149Z,955.41
2022-08-03T11:44:29.904Z,955.42
2022-08-03T11:45:29.907Z,955.41
2022-08-03T11:46:30.199Z,955.41
2022-08-03T11:47:29.915Z,955.4
2022-08-03T11:48:29.922Z,955.43
2022-08-03T11:49:29.941Z,955.38
2022-08-03T11:50:29.931Z,955.39
2022-08-03T11:51:29.931Z,955.4
2022-08-03T11:52:29.937Z,955.41
2022-08-03T11:53:29.940Z,955.37
2022-08-03T11:54:30.271Z,955.33
2022-08-03T11:55:30.685Z,955.4
2022-08-03T11:56:29.955Z,955.4
2022-08-03T11:59:00.586Z,955.39
2022-08-03T11:59:31.352Z,955.35
2022-08-03T12:00:31.359Z,955.4
2022-08-03T12:01:31.360Z,955.35
2022-08-03T12:02:31.363Z,955.42
2022-08-03T12:03:31.397Z,955.38
2022-08-03T12:04:31.371Z,955.36
2022-08-03T12:05:31.375Z,955.37
2022-08-03T12:06:31.381Z,955.35
2022-08-03T12:08:02.917Z,955.37
2022-08-03T12:08:31.395Z,955.32
2022-08-03T12:09:31.392Z,955.3
2022-08-03T12:10:31.396Z,955.29
2022-08-03T12:11:31.407Z,955.31
2022-08-03T12:12:31.405Z,955.29
2022-08-03T12:13:57.118Z,955.31
2022-08-03T12:15:01.098Z,955.3
2022-08-03T12:16:01.309Z,955.32
2022-08-03T12:17:01.106Z,955.31
2022-08-03T12:18:01.113Z,955.31
2022-08-03T12:19:01.116Z,955.26
2022-08-03T12:20:01.122Z,955.21
2022-08-03T12:21:01.145Z,955.24
2022-08-03T12:22:01.132Z,955.23
2022-08-03T12:23:01.141Z,955.22
2022-08-03T12:24:01.139Z,955.18
2022-08-03T12:25:01.144Z,955.22
2022-08-03T12:26:01.145Z,955.16
2022-08-03T12:27:01.153Z,955.12
2022-08-03T12:28:01.154Z,955.18
2022-08-03T12:29:01.161Z,955.13
2022-08-03T12:30:01.162Z,955.14
2022-08-03T12:31:01.168Z,955.14
2022-08-03T12:32:01.174Z,955.11
2022-08-03T12:33:01.176Z,955.17
2022-08-03T12:34:01.179Z,955.09
2022-08-03T12:35:01.985Z,955.14
2022-08-03T12:36:01.188Z,955.11
2022-08-03T12:37:01.194Z,955.09
2022-08-03T12:38:01.198Z,955.11
2022-08-03T12:39:01.204Z,955.13
2022-08-03T12:40:04.186Z,955.18
2022-08-03T12:41:01.214Z,955.13
2022-08-03T12:42:01.214Z,955.12
2022-08-03T12:43:01.219Z,955.08
2022-08-03T12:44:01.223Z,955.05
2022-08-03T12:45:01.230Z,955.04
2022-08-03T12:46:01.231Z,955.08
2022-08-03T12:47:01.237Z,955.1
2022-08-03T12:48:01.249Z,955.07
2022-08-03T12:49:01.326Z,955.02
2022-08-03T12:50:01.249Z,955.03
2022-08-03T12:51:01.255Z,955
2022-08-03T12:52:05.446Z,955
2022-08-03T12:53:01.263Z,955.02
2022-08-03T12:54:01.268Z,955
2022-08-03T12:55:01.273Z,955.03